Pearson, Arkansas
Current Conditions -  °F | °C
As of 5:56 PM on Friday 24 Oct 2014 (Local Time) from KSRC Reporting Station
Clear Clear  
Wind Chill: 69°   Ceiling: Unl
Heat Index: 69°   Visibility: 10mi
Dew Point: 58°   Wind: 3mph
Humidity: 68%   Direction: 200°SSW
Pressure: 30.09"   Gusts: NA
Location:  35.4081°N, 92.1263°W
Report Text: KSRC 242256Z AUTO 20003KT 10SM CLR 21/14 A3009 RMK AO2 SLP196 T02060144 TSNO
Loading
Personal Weather Stations






























Interactive Weather Map New forecast layout! Learn more

10-Day Weather Forecast

Advertisements
Track Severe Weather on mobile